Time;durP1;ratioP1;P1;durP2;ratioP2;P2;SDS_P1;SDS_P2;PMS_P1;PMS_P2;Temp;Humidity;BMP_temperature;BMP_pressure;BME280_temperature;BME280_humidity;BME280_pressure;Samples;Min_cycle;Max_cycle;Signal;HPM_P1;HPM_P2
2023/10/01 00:00:42;;;;;;;7.72;5.88;;;14.70;99.90;;;;;;4191674;28;20029;-62
2023/10/01 00:02:43;;;;;;;10.57;4.82;;;14.70;99.90;;;;;;4193228;28;20098;-62
2023/10/01 00:04:45;;;;;;;11.57;5.88;;;14.70;99.90;;;;;;4192607;28;20044;-62
2023/10/01 00:06:46;;;;;;;9.88;6.20;;;14.70;99.90;;;;;;4193107;28;20093;-62
2023/10/01 00:08:47;;;;;;;8.10;5.43;;;14.70;99.90;;;;;;4194123;28;20366;-61
2023/10/01 00:10:48;;;;;;;10.32;5.50;;;14.70;99.90;;;;;;4193903;28;20040;-62
2023/10/01 00:12:54;;;;;;;9.63;6.07;;;14.70;99.90;;;;;;4193976;28;20074;-62
2023/10/01 00:14:55;;;;;;;8.00;5.28;;;14.70;99.90;;;;;;4192249;28;20546;-61
2023/10/01 00:16:57;;;;;;;8.35;5.63;;;14.70;99.90;;;;;;4194384;28;20036;-61
2023/10/01 00:18:59;;;;;;;9.57;5.00;;;14.70;99.90;;;;;;4192349;28;20098;-61
2023/10/01 00:21:00;;;;;;;9.27;5.63;;;14.70;99.90;;;;;;4193601;28;20090;-60
2023/10/01 00:23:04;;;;;;;11.02;5.50;;;14.80;99.90;;;;;;4192535;28;20473;-61
2023/10/01 00:25:07;;;;;;;8.85;5.43;;;14.80;99.90;;;;;;4194417;28;20037;-61
2023/10/01 00:27:09;;;;;;;7.60;4.95;;;14.80;99.90;;;;;;4192308;28;20041;-60
2023/10/01 00:29:10;;;;;;;7.50;4.85;;;14.80;99.90;;;;;;4193983;28;20150;-60
2023/10/01 00:31:11;;;;;;;8.48;5.55;;;14.80;99.90;;;;;;4191887;28;20064;-60
2023/10/01 00:33:15;;;;;;;15.13;6.80;;;14.70;99.90;;;;;;4175867;28;20122;-61
2023/10/01 00:35:17;;;;;;;7.82;5.97;;;14.70;99.90;;;;;;4192304;28;20041;-62
2023/10/01 00:37:18;;;;;;;8.18;5.50;;;14.60;99.90;;;;;;4193397;28;20082;-61
2023/10/01 00:39:19;;;;;;;10.80;5.95;;;14.50;99.90;;;;;;4193178;28;20091;-61
2023/10/01 00:41:22;;;;;;;8.27;5.30;;;14.50;99.90;;;;;;4193457;28;20060;-60
2023/10/01 00:43:29;;;;;;;8.55;5.63;;;14.40;99.90;;;;;;4193808;28;20055;-61
2023/10/01 00:45:31;;;;;;;7.57;4.85;;;14.40;99.90;;;;;;4193147;28;20431;-60
2023/10/01 00:47:33;;;;;;;9.10;5.55;;;14.30;99.90;;;;;;4193766;28;20040;-62
2023/10/01 00:49:46;;;;;;;7.90;5.95;;;14.30;99.90;;;;;;4192534;28;20041;-60
2023/10/01 00:51:48;;;;;;;9.27;5.63;;;14.30;99.90;;;;;;4193066;28;20086;-61
2023/10/01 00:53:51;;;;;;;8.85;6.28;;;14.30;99.90;;;;;;4192066;28;20118;-61
2023/10/01 00:55:53;;;;;;;7.53;5.43;;;14.30;99.90;;;;;;4193334;28;20551;-61
2023/10/01 00:57:55;;;;;;;9.85;6.13;;;14.30;99.90;;;;;;4192985;28;20028;-61
2023/10/01 00:59:56;;;;;;;9.32;6.45;;;14.20;99.90;;;;;;4193726;28;20054;-61
2023/10/01 01:01:57;;;;;;;8.20;6.28;;;14.20;99.90;;;;;;4157503;28;20100;-60
2023/10/01 01:03:58;;;;;;;12.80;6.20;;;14.20;99.90;;;;;;4194081;28;20460;-60
2023/10/01 01:08:08;;;;;;;10.10;5.90;;;14.10;99.90;;;;;;4193486;28;20110;-61
2023/10/01 01:10:09;;;;;;;9.77;5.93;;;14.10;99.90;;;;;;4191692;28;20037;-61
2023/10/01 01:12:10;;;;;;;9.95;6.88;;;14.00;99.90;;;;;;4193929;28;20435;-61
2023/10/01 01:14:11;;;;;;;10.43;6.03;;;14.00;99.90;;;;;;4191993;28;20041;-61
2023/10/01 01:16:14;;;;;;;9.95;6.97;;;13.90;99.90;;;;;;4193798;28;20070;-62
2023/10/01 01:18:20;;;;;;;10.20;6.10;;;13.90;99.90;;;;;;4195171;28;20028;-61
2023/10/01 01:20:22;;;;;;;12.07;7.35;;;13.80;99.90;;;;;;4178533;28;20049;-59
2023/10/01 01:22:28;;;;;;;8.52;6.25;;;13.70;99.90;;;;;;4196344;28;20122;-60
2023/10/01 01:24:30;;;;;;;11.77;6.35;;;13.70;99.90;;;;;;4195810;28;20469;-60
2023/10/01 01:26:31;;;;;;;13.25;6.05;;;13.60;99.90;;;;;;4194604;28;20066;-63
2023/10/01 01:28:32;;;;;;;8.07;5.60;;;13.60;99.90;;;;;;4192251;28;20041;-61
2023/10/01 01:30:41;;;;;;;11.38;5.85;;;13.50;99.90;;;;;;4196941;28;20040;-60
2023/10/01 01:32:43;;;;;;;10.10;5.80;;;13.50;99.90;;;;;;4193371;28;20127;-60
2023/10/01 01:34:45;;;;;;;8.63;5.80;;;13.50;99.90;;;;;;4196292;28;20074;-61
2023/10/01 01:36:47;;;;;;;10.00;6.55;;;13.50;99.90;;;;;;4194874;28;20074;-61
2023/10/01 01:39:13;;;;;;;11.43;6.47;;;13.50;99.90;;;;;;4196716;28;20427;-61
2023/10/01 01:41:19;;;;;;;9.90;6.23;;;13.50;99.90;;;;;;4194687;28;20032;-59
2023/10/01 01:43:23;;;;;;;14.07;6.43;;;13.40;99.90;;;;;;4195557;28;20029;-59
2023/10/01 01:45:27;;;;;;;9.73;6.50;;;13.30;99.90;;;;;;4195648;28;20032;-60
2023/10/01 01:47:30;;;;;;;10.83;6.70;;;13.30;99.90;;;;;;4196393;28;20046;-61
2023/10/01 01:49:31;;;;;;;11.43;6.40;;;13.30;99.90;;;;;;4194843;28;20049;-61
2023/10/01 01:51:33;;;;;;;10.33;5.80;;;13.30;99.90;;;;;;4196080;28;20044;-60
2023/10/01 01:53:35;;;;;;;12.43;6.57;;;13.30;99.90;;;;;;4194723;28;20345;-60
2023/10/01 01:55:37;;;;;;;8.43;6.53;;;13.20;99.90;;;;;;4195801;28;20052;-60
2023/10/01 01:57:38;;;;;;;9.70;6.37;;;13.20;99.90;;;;;;4194723;28;20106;-62
2023/10/01 01:59:41;;;;;;;12.60;8.27;;;13.10;99.90;;;;;;4195674;28;20044;-60
2023/10/01 02:01:42;;;;;;;10.47;6.33;;;13.10;99.90;;;;;;4194642;28;20557;-59
2023/10/01 02:03:46;;;;;;;14.17;6.90;;;13.10;99.90;;;;;;4194943;28;20036;-57
2023/10/01 02:05:47;;;;;;;10.90;6.57;;;13.10;99.90;;;;;;4195228;28;20032;-61
2023/10/01 02:07:50;;;;;;;11.27;7.00;;;13.10;99.90;;;;;;4195651;28;20102;-61
2023/10/01 02:09:51;;;;;;;11.80;6.80;;;13.00;99.90;;;;;;4195043;28;20041;-62
2023/10/01 02:11:53;;;;;;;13.53;7.43;;;13.00;99.90;;;;;;4194740;28;20044;-63
2023/10/01 02:13:55;;;;;;;8.57;6.70;;;13.00;99.90;;;;;;4195000;28;20026;-61
2023/10/01 02:15:56;;;;;;;9.67;6.93;;;12.90;99.90;;;;;;4194138;28;20447;-58
2023/10/01 02:17:57;;;;;;;9.87;6.37;;;12.80;99.90;;;;;;4195494;28;20485;-61
2023/10/01 02:20:00;;;;;;;9.33;6.37;;;12.80;99.90;;;;;;4194044;28;20085;-60
2023/10/01 02:22:05;;;;;;;10.00;5.97;;;12.70;99.90;;;;;;4195092;28;20093;-61
2023/10/01 02:24:06;;;;;;;8.53;6.43;;;12.70;99.90;;;;;;4194846;28;20074;-60
2023/10/01 02:26:08;;;;;;;12.67;7.20;;;12.70;99.90;;;;;;4194942;28;20048;-61
2023/10/01 02:28:14;;;;;;;13.93;7.30;;;12.70;99.90;;;;;;4193342;28;20393;-61
2023/10/01 02:30:16;;;;;;;10.43;6.70;;;12.70;99.90;;;;;;4195650;28;20082;-59
2023/10/01 02:32:17;;;;;;;12.23;6.30;;;12.70;99.90;;;;;;4193418;28;20097;-60
2023/10/01 02:34:19;;;;;;;10.23;6.67;;;12.70;99.90;;;;;;4195338;28;21395;-61
2023/10/01 02:36:23;;;;;;;9.27;6.80;;;12.60;99.90;;;;;;4193690;28;20089;-62
2023/10/01 02:38:36;;;;;;;9.20;6.63;;;12.70;99.90;;;;;;4194982;28;20066;-61
2023/10/01 02:40:37;;;;;;;8.30;5.93;;;12.70;99.90;;;;;;4194318;28;20040;-62
2023/10/01 02:42:39;;;;;;;12.47;6.37;;;12.70;99.90;;;;;;4195458;28;20029;-62
2023/10/01 02:44:40;;;;;;;14.83;6.37;;;12.70;99.90;;;;;;4194113;28;20036;-62
2023/10/01 02:46:42;;;;;;;10.17;5.97;;;12.70;99.90;;;;;;4194879;28;20078;-63
2023/10/01 02:48:45;;;;;;;12.10;5.97;;;12.70;99.90;;;;;;4194298;28;20032;-61
2023/10/01 02:50:54;;;;;;;8.27;5.73;;;12.70;99.90;;;;;;4194641;28;20032;-61
2023/10/01 02:52:55;;;;;;;11.60;6.63;;;12.70;99.90;;;;;;4186702;28;20443;-62
2023/10/01 02:55:00;;;;;;;10.27;6.43;;;12.70;99.90;;;;;;4194656;28;20032;-63
2023/10/01 02:57:13;;;;;;;10.73;6.10;;;12.70;99.90;;;;;;4193153;28;20134;-62
2023/10/01 02:59:15;;;;;;;10.87;6.57;;;12.70;99.90;;;;;;4177796;28;20041;-60
2023/10/01 03:01:17;;;;;;;9.33;5.93;;;12.70;99.90;;;;;;4178718;28;20045;-62
2023/10/01 03:03:18;;;;;;;9.37;5.87;;;12.70;99.90;;;;;;4188981;28;20052;-61
2023/10/01 03:07:33;;;;;;;8.73;5.27;;;12.70;99.90;;;;;;4194237;28;20040;-62
2023/10/01 03:09:39;;;;;;;9.20;6.13;;;12.70;99.90;;;;;;4194125;28;20041;-62
2023/10/01 03:11:44;;;;;;;8.03;6.27;;;12.70;99.90;;;;;;4193305;28;20056;-61
2023/10/01 03:13:48;;;;;;;9.10;6.07;;;12.70;99.90;;;;;;4195493;28;20024;-61
2023/10/01 03:22:39;;;;;;;9.17;5.97;;;12.60;99.90;;;;;;4195342;28;20476;-60
2023/10/01 03:24:47;;;;;;;9.70;5.50;;;12.60;99.90;;;;;;4193753;28;20024;-62
2023/10/01 03:26:48;;;;;;;8.43;5.93;;;12.60;99.90;;;;;;4178837;28;20042;-61
2023/10/01 03:31:09;;;;;;;12.27;6.57;;;12.60;99.90;;;;;;4194880;28;20542;-62
2023/10/01 03:33:15;;;;;;;7.67;5.90;;;12.60;99.90;;;;;;4192392;28;20074;-62
2023/10/01 03:35:20;;;;;;;9.23;6.33;;;12.50;99.90;;;;;;4194491;28;20082;-62
2023/10/01 03:37:37;;;;;;;7.90;5.67;;;12.50;99.90;;;;;;4192858;28;20082;-60
2023/10/01 03:39:42;;;;;;;10.57;6.73;;;12.40;99.90;;;;;;4194747;28;20090;-59
2023/10/01 03:41:52;;;;;;;8.27;5.93;;;12.40;99.90;;;;;;4192908;28;20040;-61
2023/10/01 03:43:56;;;;;;;8.48;6.00;;;12.40;99.90;;;;;;4195076;28;20082;-61
2023/10/01 03:46:31;;;;;;;12.97;6.17;;;12.40;99.90;;;;;;4193696;28;20424;-62
2023/10/01 03:48:42;;;;;;;11.50;5.73;;;12.40;99.90;;;;;;4193211;28;20044;-62
2023/10/01 03:50:47;;;;;;;9.17;6.33;;;12.40;99.90;;;;;;4192525;28;20062;-62
2023/10/01 03:52:52;;;;;;;10.87;5.90;;;12.40;99.90;;;;;;4194520;28;20040;-61
2023/10/01 03:56:57;;;;;;;12.07;6.67;;;12.30;99.90;;;;;;4194329;28;20534;-61
2023/10/01 03:59:00;;;;;;;9.03;6.10;;;12.30;99.90;;;;;;4193339;28;20074;-60
2023/10/01 04:01:21;;;;;;;8.43;6.40;;;12.30;99.90;;;;;;4193693;28;20048;-61
2023/10/01 04:03:22;;;;;;;11.97;6.83;;;12.30;99.90;;;;;;4179810;28;20037;-63
2023/10/01 04:05:34;;;;;;;8.63;6.90;;;12.20;99.90;;;;;;4193506;28;20036;-61
2023/10/01 04:07:45;;;;;;;15.10;7.40;;;12.10;99.90;;;;;;4192444;28;20070;-62
2023/10/01 04:09:46;;;;;;;10.90;6.63;;;12.10;99.90;;;;;;4194921;28;20523;-59
2023/10/01 04:11:51;;;;;;;12.50;6.90;;;12.10;99.90;;;;;;4192509;28;20052;-62
2023/10/01 04:14:07;;;;;;;11.50;6.97;;;12.20;99.90;;;;;;4193958;28;20576;-62
2023/10/01 04:16:14;;;;;;;7.17;5.77;;;12.20;99.90;;;;;;4193555;28;20008;-62
2023/10/01 04:20:19;;;;;;;9.50;6.77;;;12.20;99.90;;;;;;4193285;28;20024;-60
2023/10/01 04:22:21;;;;;;;11.40;6.53;;;12.20;99.90;;;;;;4193704;28;20488;-62
2023/10/01 04:24:22;;;;;;;12.27;6.80;;;12.20;99.90;;;;;;4193001;28;20012;-62
2023/10/01 04:26:25;;;;;;;10.77;7.10;;;12.10;99.90;;;;;;4192882;28;20032;-63
2023/10/01 04:28:31;;;;;;;14.63;6.50;;;12.00;99.90;;;;;;4158951;28;20025;-61
2023/10/01 04:30:35;;;;;;;9.07;6.40;;;12.00;99.90;;;;;;4176452;28;20540;-62
2023/10/01 04:32:37;;;;;;;12.67;6.47;;;12.00;99.90;;;;;;4177418;28;20048;-62
2023/10/01 04:34:38;;;;;;;10.53;6.73;;;12.10;99.90;;;;;;4186801;28;20174;-61
2023/10/01 04:36:42;;;;;;;12.87;7.10;;;12.10;99.90;;;;;;4194278;28;20534;-61
2023/10/01 04:38:45;;;;;;;9.87;6.17;;;12.10;99.90;;;;;;4192685;28;20029;-61
2023/10/01 04:40:48;;;;;;;9.53;6.70;;;12.20;99.90;;;;;;4193583;28;20799;-62
2023/10/01 04:42:50;;;;;;;10.93;6.17;;;12.30;99.90;;;;;;4192274;28;20067;-61
2023/10/01 04:44:51;;;;;;;12.40;6.57;;;12.50;99.90;;;;;;4193664;28;20036;-62
2023/10/01 04:46:55;;;;;;;33.30;12.03;;;12.70;99.90;;;;;;4193049;28;20123;-62
2023/10/01 04:48:56;;;;;;;73.33;24.53;;;12.80;99.90;;;;;;4193527;28;20020;-58
2023/10/01 04:50:58;;;;;;;94.83;29.90;;;13.10;99.90;;;;;;4188278;28;20063;-62
2023/10/01 04:52:59;;;;;;;44.83;18.77;;;13.40;99.90;;;;;;4194985;28;20451;-61
2023/10/01 04:55:01;;;;;;;99.20;36.17;;;13.60;99.90;;;;;;4196196;28;20408;-62
2023/10/01 04:57:02;;;;;;;61.80;22.07;;;13.90;99.90;;;;;;4197193;28;20542;-61
2023/10/01 04:59:03;;;;;;;40.40;14.00;;;14.20;99.90;;;;;;4195069;28;20033;-61
2023/10/01 05:01:06;;;;;;;35.67;16.07;;;14.50;99.90;;;;;;4196783;28;20387;-62
2023/10/01 05:03:10;;;;;;;23.03;10.37;;;14.80;99.90;;;;;;4196509;28;20046;-62
2023/10/01 05:05:11;;;;;;;20.83;9.32;;;15.10;99.90;;;;;;4196827;28;20090;-63
2023/10/01 05:07:14;;;;;;;14.63;7.45;;;15.30;99.90;;;;;;4195963;28;20036;-63
2023/10/01 05:09:16;;;;;;;8.23;6.18;;;15.60;99.90;;;;;;4195383;28;20037;-63
2023/10/01 05:11:21;;;;;;;10.73;5.88;;;15.80;99.90;;;;;;4196260;28;20044;-65
2023/10/01 05:13:23;;;;;;;8.95;6.18;;;16.10;99.90;;;;;;4195401;28;20140;-63
2023/10/01 05:15:26;;;;;;;7.35;5.55;;;16.40;99.90;;;;;;4197290;28;20070;-62
2023/10/01 05:17:30;;;;;;;11.35;5.60;;;16.80;99.90;;;;;;4195840;28;20032;-62
2023/10/01 05:19:32;;;;;;;9.65;6.20;;;17.10;99.90;;;;;;4196670;28;20098;-63
2023/10/01 05:21:36;;;;;;;11.30;5.90;;;17.50;99.90;;;;;;4194879;28;20045;-62
2023/10/01 05:23:39;;;;;;;8.63;5.40;;;17.80;99.90;;;;;;4196025;28;20089;-63
2023/10/01 05:25:45;;;;;;;7.65;4.53;;;18.20;99.90;;;;;;4195458;28;20097;-63
2023/10/01 05:27:46;;;;;;;9.15;5.00;;;18.40;99.90;;;;;;4195969;28;20048;-63
2023/10/01 05:29:48;;;;;;;6.25;4.57;;;18.50;99.90;;;;;;4194376;28;20443;-63
2023/10/01 05:31:49;;;;;;;7.15;4.90;;;18.70;99.90;;;;;;4196253;28;20052;-63
2023/10/01 05:33:58;;;;;;;9.40;5.25;;;19.00;99.90;;;;;;4195463;28;20362;-63
2023/10/01 05:36:04;;;;;;;9.65;4.82;;;19.20;99.90;;;;;;4196925;28;20020;-63
2023/10/01 05:38:10;;;;;;;6.88;4.57;;;19.50;99.90;;;;;;4195509;28;20020;-62
2023/10/01 05:40:15;;;;;;;5.95;4.72;;;19.80;99.90;;;;;;4197275;28;20032;-63
2023/10/01 05:42:19;;;;;;;5.43;4.60;;;19.90;99.90;;;;;;4195674;28;20541;-64
2023/10/01 05:44:21;;;;;;;10.65;4.43;;;20.00;99.90;;;;;;4196421;28;20020;-63
2023/10/01 05:46:22;;;;;;;10.27;4.35;;;20.20;99.90;;;;;;4194886;28;20024;-62
2023/10/01 05:48:24;;;;;;;5.28;4.22;;;20.40;99.90;;;;;;4195146;28;20048;-63
2023/10/01 05:50:29;;;;;;;9.85;4.82;;;20.80;99.90;;;;;;4195211;28;20016;-63
2023/10/01 05:52:31;;;;;;;7.70;4.63;;;21.30;99.90;;;;;;4194095;28;20068;-63
2023/10/01 05:54:34;;;;;;;6.68;4.35;;;21.60;99.90;;;;;;4195597;28;20178;-64
2023/10/01 05:56:43;;;;;;;5.95;4.00;;;21.80;99.90;;;;;;4194730;28;20028;-63
2023/10/01 05:58:44;;;;;;;7.18;4.40;;;22.10;99.90;;;;;;4196612;28;20109;-64
2023/10/01 06:00:57;;;;;;;7.07;4.40;;;22.40;99.90;;;;;;4195531;28;20427;-64
2023/10/01 06:03:01;;;;;;;6.20;4.88;;;22.50;99.90;;;;;;4195107;28;20038;-64
2023/10/01 06:05:22;;;;;;;6.15;4.45;;;22.70;99.90;;;;;;4194178;28;20032;-63
2023/10/01 06:07:24;;;;;;;6.78;4.70;;;22.70;99.90;;;;;;4195897;28;20037;-63
2023/10/01 06:09:25;;;;;;;5.78;4.20;;;22.90;99.90;;;;;;4194635;28;20173;-61
2023/10/01 06:11:41;;;;;;;9.60;4.85;;;23.10;99.90;;;;;;4194869;28;20032;-62
2023/10/01 06:13:54;;;;;;;5.30;4.65;;;23.20;99.90;;;;;;4195030;28;20447;-63
2023/10/01 06:16:14;;;;;;;6.28;4.60;;;22.80;99.90;;;;;;4195626;28;20090;-62
2023/10/01 06:18:17;;;;;;;6.68;4.85;;;22.90;99.90;;;;;;4179483;28;20133;-61
2023/10/01 06:20:26;;;;;;;7.20;4.88;;;22.70;99.90;;;;;;4195323;28;20400;-63
2023/10/01 06:22:27;;;;;;;6.60;4.45;;;22.40;99.90;;;;;;4194819;28;20652;-63
2023/10/01 06:24:28;;;;;;;7.25;5.40;;;22.10;99.90;;;;;;4195199;28;20033;-61
2023/10/01 06:26:42;;;;;;;8.00;5.20;;;21.60;99.90;;;;;;4195467;28;20044;-62
2023/10/01 06:28:44;;;;;;;8.60;5.25;;;21.20;99.90;;;;;;4179396;28;20045;-63
2023/10/01 06:30:45;;;;;;;6.80;5.13;;;21.00;99.90;;;;;;4194245;28;20463;-63
2023/10/01 06:32:46;;;;;;;7.20;5.55;;;20.80;99.90;;;;;;4196216;28;20037;-61
2023/10/01 06:34:49;;;;;;;11.30;5.70;;;20.40;99.90;;;;;;4195021;28;20040;-63
2023/10/01 06:36:58;;;;;;;9.07;6.15;;;20.50;99.90;;;;;;4195153;28;20044;-62
2023/10/01 06:38:59;;;;;;;10.57;5.80;;;20.40;99.90;;;;;;4194687;28;20370;-64
2023/10/01 06:41:01;;;;;;;7.55;5.53;;;20.30;99.90;;;;;;4196418;28;20460;-63
2023/10/01 06:43:02;;;;;;;8.30;6.38;;;20.20;99.90;;;;;;4194775;28;20037;-62
2023/10/01 06:45:06;;;;;;;10.27;5.53;;;20.10;99.90;;;;;;4194929;28;20357;-64
2023/10/01 06:47:14;;;;;;;9.23;6.75;;;20.00;99.90;;;;;;4194191;28;20008;-64
2023/10/01 06:49:18;;;;;;;8.68;6.28;;;20.00;99.90;;;;;;4194579;28;20485;-64
2023/10/01 06:51:24;;;;;;;12.30;6.32;;;19.70;99.90;;;;;;4194145;28;20032;-63
2023/10/01 06:53:43;;;;;;;10.80;6.00;;;19.80;99.90;;;;;;4193657;28;20082;-62
2023/10/01 06:55:47;;;;;;;8.35;5.90;;;19.80;99.90;;;;;;4194438;28;20526;-63
2023/10/01 06:57:50;;;;;;;9.40;6.85;;;19.70;99.90;;;;;;4195411;28;20138;-62
2023/10/01 06:59:51;;;;;;;9.50;6.00;;;19.50;99.90;;;;;;4194847;28;20082;-63
2023/10/01 07:01:56;;;;;;;9.50;6.60;;;19.20;99.90;;;;;;4193826;28;20040;-63
2023/10/01 07:03:57;;;;;;;7.20;5.75;;;19.10;99.90;;;;;;4195276;28;20066;-63
2023/10/01 07:06:02;;;;;;;8.65;5.70;;;19.00;99.90;;;;;;4192924;28;20090;-62
2023/10/01 07:08:03;;;;;;;9.63;6.03;;;18.90;99.90;;;;;;4194669;28;20090;-63
2023/10/01 07:10:10;;;;;;;8.38;6.57;;;18.90;99.90;;;;;;4194679;28;20207;-63
2023/10/01 07:12:12;;;;;;;10.63;6.78;;;18.70;99.90;;;;;;4190219;28;20467;-63
2023/10/01 07:14:14;;;;;;;25.58;7.72;;;18.40;99.90;;;;;;4193882;28;20075;-64
2023/10/01 07:16:35;;;;;;;14.60;7.63;;;18.10;99.90;;;;;;4193531;28;20098;-64
2023/10/01 07:18:39;;;;;;;12.15;7.90;;;18.40;99.90;;;;;;4193467;28;20032;-61
2023/10/01 07:20:44;;;;;;;10.18;7.30;;;18.70;99.90;;;;;;4177810;28;20477;-67
2023/10/01 07:22:45;;;;;;;13.93;8.77;;;18.50;99.90;;;;;;4177580;28;20475;-63
2023/10/01 07:24:46;;;;;;;12.30;8.32;;;18.50;99.90;;;;;;4192776;28;20040;-66
2023/10/01 07:26:48;;;;;;;9.98;7.38;;;18.90;99.90;;;;;;4192839;28;20040;-61
2023/10/01 07:28:55;;;;;;;10.07;6.80;;;19.20;99.90;;;;;;4193983;28;20090;-62
2023/10/01 07:31:01;;;;;;;12.30;7.28;;;19.40;99.90;;;;;;4192923;28;20044;-59
2023/10/01 07:33:03;;;;;;;8.95;6.25;;;19.80;99.90;;;;;;4194937;28;20477;-59
2023/10/01 07:35:06;;;;;;;10.13;6.13;;;20.00;99.90;;;;;;4193654;28;20815;-61
2023/10/01 07:37:08;;;;;;;9.40;6.25;;;20.10;99.90;;;;;;4194977;28;20028;-62
2023/10/01 07:39:13;;;;;;;17.13;8.80;;;20.30;99.90;;;;;;4192872;28;20037;-60
2023/10/01 07:41:16;;;;;;;10.90;6.43;;;20.40;99.90;;;;;;4194723;28;20488;-58
2023/10/01 07:43:18;;;;;;;19.25;10.65;;;20.60;99.90;;;;;;4193721;28;20522;-61
2023/10/01 07:45:19;;;;;;;55.15;20.58;;;20.70;99.90;;;;;;4193708;28;20094;-61
2023/10/01 07:47:34;;;;;;;6.75;5.13;;;21.00;99.90;;;;;;4193453;28;20463;-57
2023/10/01 07:49:47;;;;;;;7.03;5.07;;;20.90;99.90;;;;;;4192952;28;20075;-59
2023/10/01 07:51:51;;;;;;;21.38;9.05;;;21.10;99.90;;;;;;4193225;28;20033;-63
2023/10/01 07:53:59;;;;;;;7.80;5.07;;;21.60;99.90;;;;;;4192974;28;20048;-62
2023/10/01 07:56:02;;;;;;;25.08;9.50;;;21.80;99.90;;;;;;4193952;28;20025;-62
2023/10/01 07:58:23;;;;;;;13.73;7.70;;;21.70;99.90;;;;;;4175711;28;20087;-62
2023/10/01 08:00:28;;;;;;;7.68;5.28;;;21.80;99.90;;;;;;4193020;28;20048;-63
2023/10/01 08:03:01;;;;;;;12.20;7.22;;;21.70;99.90;;;;;;4193875;28;20078;-62
2023/10/01 08:04:58;;;;;;;7.45;5.07;;;21.70;99.90;;;;;;4193467;28;20025;-63
2023/10/01 08:07:06;;;;;;;9.77;6.28;;;21.90;99.90;;;;;;4193089;28;20036;-61
2023/10/01 08:09:12;;;;;;;8.77;5.93;;;21.90;99.90;;;;;;4192837;28;20094;-62
2023/10/01 08:13:34;;;;;;;7.90;4.75;;;21.30;99.90;;;;;;4193167;28;20093;-63
2023/10/01 08:15:38;;;;;;;9.27;4.78;;;21.20;99.90;;;;;;4193007;28;20025;-63
2023/10/01 08:17:43;;;;;;;6.03;4.88;;;21.00;99.90;;;;;;4193361;28;20062;-62
2023/10/01 08:19:44;;;;;;;8.05;5.25;;;20.90;99.90;;;;;;4192365;28;20090;-64
2023/10/01 08:21:50;;;;;;;7.65;5.40;;;20.70;99.90;;;;;;4193047;28;20074;-63
2023/10/01 08:23:54;;;;;;;5.90;4.95;;;20.50;99.90;;;;;;4191972;28;20029;-61
2023/10/01 08:25:56;;;;;;;8.05;5.38;;;20.40;99.90;;;;;;4193760;28;20465;-62
2023/10/01 08:30:20;;;;;;;9.35;5.80;;;20.50;99.90;;;;;;4193742;28;20489;-61
2023/10/01 08:32:24;;;;;;;10.30;6.30;;;20.70;99.90;;;;;;4192922;28;20033;-61
2023/10/01 08:34:28;;;;;;;6.35;5.20;;;20.70;99.90;;;;;;4193207;28;20040;-62
2023/10/01 08:36:36;;;;;;;5.93;5.22;;;20.70;99.90;;;;;;4192921;28;20109;-63
2023/10/01 08:38:38;;;;;;;9.70;5.70;;;20.80;99.90;;;;;;4193997;28;20036;-63
2023/10/01 08:40:41;;;;;;;6.80;4.95;;;21.10;99.90;;;;;;4192430;28;20542;-63
2023/10/01 08:42:45;;;;;;;5.93;5.32;;;21.20;99.90;;;;;;4194468;28;20040;-62
2023/10/01 08:44:54;;;;;;;7.68;4.38;;;21.20;99.90;;;;;;4191892;28;20066;-64
2023/10/01 08:47:21;;;;;;;7.80;4.13;;;21.30;99.90;;;;;;4193981;28;20064;-62
2023/10/01 08:49:23;;;;;;;6.85;5.22;;;21.50;99.90;;;;;;4192882;28;20040;-58
2023/10/01 08:51:25;;;;;;;6.65;4.35;;;21.90;99.90;;;;;;4193986;28;20036;-61
2023/10/01 08:53:27;;;;;;;10.45;4.45;;;22.00;99.90;;;;;;4191708;28;20578;-62
2023/10/01 08:55:39;;;;;;;5.90;4.35;;;21.90;99.90;;;;;;4193243;28;20039;-60
2023/10/01 08:57:45;;;;;;;7.07;4.68;;;21.80;99.90;;;;;;4191710;28;20082;-61
2023/10/01 08:59:46;;;;;;;8.80;4.70;;;21.80;99.90;;;;;;4192730;28;20071;-61
2023/10/01 09:01:47;;;;;;;7.97;4.57;;;21.70;99.90;;;;;;4192445;28;20078;-62
2023/10/01 09:03:48;;;;;;;9.23;4.43;;;21.80;99.90;;;;;;4193756;28;20028;-62
2023/10/01 09:06:03;;;;;;;5.97;4.50;;;21.90;99.90;;;;;;4192323;28;20075;-60
2023/10/01 09:08:16;;;;;;;8.02;4.15;;;21.70;99.90;;;;;;4192696;28;20485;-62
2023/10/01 09:10:18;;;;;;;9.55;5.53;;;21.60;99.90;;;;;;4192330;28;20033;-63
2023/10/01 09:12:19;;;;;;;8.70;5.03;;;21.50;99.90;;;;;;4193303;28;20040;-61
2023/10/01 09:14:35;;;;;;;6.70;4.32;;;21.60;99.90;;;;;;4192523;28;20121;-62
2023/10/01 09:16:42;;;;;;;6.90;4.32;;;21.50;99.90;;;;;;4193474;28;20101;-60
2023/10/01 09:19:04;;;;;;;6.78;4.85;;;21.70;99.90;;;;;;4174048;28;20475;-62
2023/10/01 09:21:08;;;;;;;5.40;4.43;;;21.80;99.90;;;;;;4193121;28;20036;-61
2023/10/01 09:23:09;;;;;;;4.80;3.95;;;21.80;99.90;;;;;;4192424;28;20070;-62
2023/10/01 09:25:27;;;;;;;5.72;4.78;;;22.00;99.90;;;;;;4192999;28;20033;-62
2023/10/01 09:27:30;;;;;;;4.93;4.13;;;22.30;99.90;;;;;;4192387;28;20105;-62
2023/10/01 09:29:32;;;;;;;9.98;4.50;;;22.60;99.90;;;;;;4193529;28;20044;-60
2023/10/01 09:31:53;;;;;;;7.35;4.50;;;22.90;99.90;;;;;;4191591;28;20044;-62
2023/10/01 09:33:55;;;;;;;9.48;5.45;;;23.10;99.90;;;;;;4192850;28;20092;-63
2023/10/01 09:35:59;;;;;;;8.00;4.70;;;23.00;99.90;;;;;;4192574;28;20067;-62
2023/10/01 09:38:10;;;;;;;9.65;4.95;;;22.60;99.90;;;;;;4193266;28;20037;-62
2023/10/01 09:42:44;;;;;;;8.05;4.68;;;22.70;99.90;;;;;;4197136;28;20062;-61
2023/10/01 09:44:47;;;;;;;5.25;4.13;;;22.90;99.90;;;;;;4195544;28;20105;-61
2023/10/01 09:46:49;;;;;;;6.82;4.78;;;23.20;99.90;;;;;;4196242;28;20066;-60
2023/10/01 09:49:00;;;;;;;7.90;4.50;;;23.20;99.90;;;;;;4195185;28;20420;-63
2023/10/01 09:51:08;;;;;;;;;;;23.00;99.90;;;;;;4195877;28;20082;-60
2023/10/01 09:53:14;;;;;;;5.50;4.55;;;22.90;99.90;;;;;;4195182;28;20342;-60
2023/10/01 09:55:26;;;;;;;7.25;5.30;;;22.90;99.90;;;;;;4196314;28;20303;-60
2023/10/01 09:57:34;;;;;;;8.10;5.53;;;22.70;99.90;;;;;;4194706;28;20040;-63
2023/10/01 09:59:39;;;;;;;9.70;6.10;;;22.20;99.90;;;;;;4195345;28;20071;-62
2023/10/01 10:01:42;;;;;;;6.90;4.88;;;21.90;99.90;;;;;;4195431;28;20130;-61
2023/10/01 10:03:44;;;;;;;10.52;6.90;;;21.80;99.90;;;;;;4194968;28;20106;-62
2023/10/01 10:05:46;;;;;;;9.90;5.32;;;21.90;99.90;;;;;;4195692;28;20024;-60
2023/10/01 10:07:47;;;;;;;13.50;9.77;;;21.90;99.90;;;;;;4195502;28;20024;-61
2023/10/01 10:09:49;;;;;;;12.93;8.75;;;22.00;99.90;;;;;;4194609;28;20450;-61
2023/10/01 10:11:50;;;;;;;6.38;5.78;;;21.70;99.90;;;;;;4194146;28;20070;-61
2023/10/01 10:13:57;;;;;;;6.82;4.82;;;21.90;99.90;;;;;;4195210;28;20484;-63
2023/10/01 10:16:00;;;;;;;6.22;4.80;;;22.00;99.90;;;;;;4195111;28;20044;-61
2023/10/01 10:18:15;;;;;;;8.93;4.50;;;22.20;99.90;;;;;;4177440;28;20158;-64
2023/10/01 10:20:25;;;;;;;4.60;4.00;;;22.20;99.90;;;;;;4194955;28;20021;-61
2023/10/01 10:22:32;;;;;;;6.68;4.18;;;22.30;99.90;;;;;;4195107;28;20036;-60
2023/10/01 10:24:46;;;;;;;5.47;4.03;;;22.20;99.90;;;;;;4193922;28;20037;-60
2023/10/01 10:29:10;;;;;;;4.63;4.00;;;22.20;99.90;;;;;;4195263;28;20063;-62
2023/10/01 10:31:32;;;;;;;6.10;4.35;;;22.40;99.90;;;;;;4194903;28;20476;-63
2023/10/01 10:33:43;;;;;;;9.50;4.32;;;22.40;99.90;;;;;;4194492;28;20524;-63
2023/10/01 10:35:50;;;;;;;7.63;5.15;;;22.40;99.90;;;;;;4195585;28;20093;-62
2023/10/01 10:37:55;;;;;;;7.07;4.15;;;22.40;99.90;;;;;;4193270;28;20082;-62
2023/10/01 10:40:02;;;;;;;6.68;4.05;;;22.20;99.90;;;;;;4195487;28;20608;-60
2023/10/01 10:42:29;;;;;;;5.00;3.95;;;22.00;99.90;;;;;;4193794;28;20044;-62
2023/10/01 10:44:30;;;;;;;7.97;3.88;;;21.80;99.90;;;;;;4195186;28;20443;-62
2023/10/01 10:47:06;;;;;;;6.47;4.05;;;21.70;99.90;;;;;;4194430;28;20105;-62
2023/10/01 10:49:07;;;;;;;6.10;4.32;;;21.80;99.90;;;;;;4193863;28;20101;-61
2023/10/01 10:51:09;;;;;;;5.82;4.22;;;21.70;99.90;;;;;;4193345;28;20036;-61
2023/10/01 10:53:19;;;;;;;5.22;3.53;;;21.80;99.90;;;;;;4193958;28;20070;-62
2023/10/01 10:55:20;;;;;;;5.80;3.42;;;22.00;99.90;;;;;;4193665;28;20094;-63
2023/10/01 10:57:27;;;;;;;8.80;4.07;;;22.00;99.90;;;;;;4194289;28;20086;-60
2023/10/01 10:59:29;;;;;;;5.35;3.90;;;22.00;99.90;;;;;;4193033;28;20041;-61
2023/10/01 11:01:43;;;;;;;6.93;3.95;;;22.00;99.90;;;;;;4194177;28;20078;-59
2023/10/01 11:03:57;;;;;;;7.90;3.90;;;21.80;99.90;;;;;;4193071;28;20078;-60
2023/10/01 11:06:22;;;;;;;11.68;4.60;;;21.70;99.90;;;;;;4178727;28;20079;-60
2023/10/01 11:08:26;;;;;;;8.27;4.20;;;21.50;99.90;;;;;;4194523;28;20078;-60
2023/10/01 11:10:43;;;;;;;8.18;3.55;;;21.30;99.90;;;;;;4193773;28;20041;-60
2023/10/01 11:12:54;;;;;;;7.70;4.60;;;21.40;99.90;;;;;;4194006;28;20040;-59
2023/10/01 11:15:19;;;;;;;6.78;4.07;;;21.50;99.90;;;;;;4193668;28;20554;-60